Aviation Digital Data Service (ADDS)

Output produced by METARs form (0100 UTC 22 September 2017)
found at http://www.aviationweather.gov/adds/metars/
 
VTBD 220030Z 00000KT 9999 FEW020 28/26 Q1008 NOSIG
TAF VTBD 212300Z 2200/2306 03005KT 9999 FEW020 SCT040 
     BECMG 2206/2208 14005KT 
     TEMPO 2209/2213 VRB10KT 6000 -TSRA FEW018CB SCT035 
     BECMG 2218/2220 01005KT 8000
       
VTUO 220000Z 21003KT 170V260 7000 BKN020 25/25 Q1009 A2980 INFO A RWY 04
TAF VTUO 212300Z 2200/2224 18005KT 8000 SCT025 SCT100 
     TEMPO 2200/2202 VRB08KT 5000 RA BKN020 OVC100 
     TEMPO 2209/2213 VRB10KT 5000 TSRA FEW018CB BKN020 OVC100
       
VTCC 220030Z 25003KT 9999 BKN035 26/23 Q1011 NOSIG
TAF VTCC 212300Z 2200/2306 22005KT 9999 SCT035 
     TEMPO 2208/2212 VRB10G25KT 4000 TSRA FEW025CB BKN030
       
VTCT 220000Z 09003KT 040V120 9999 FEW010 SCT025 24/24 Q1010
TAF VTCT 212300Z 2200/2306 22005KT 9999 SCT035 
     TEMPO 2208/2212 VRB10G25KT 4000 TSRA FEW025CB BKN030
       
VTSE 220000Z 28003KT 9000 FEW018 25/24 Q1008
TAF VTSE 212300Z 2200/2224 27006KT 9999 FEW020 SCT100 
     TEMPO 2207/2212 VRB15KT 7000 -TSRA FEW016CB SCT018 BKN100
       
VTSS 220030Z 22005KT 9999 -RA FEW020 SCT028 BKN100 25/24 Q1009 NOSIG
TAF VTSS 212300Z 2200/2224 19004KT 9999 SCT020 BKN100 
     TEMPO 2200/2203 8000 -RA SCT015 OVC100 
     TEMPO 2205/2211 24010G20KT 5000 RA SCT015 OVC100
       
VTPH 220000Z VRB02KT 8000 -RA SCT028 26/25 Q1007
TAF VTPH 212300Z 2200/2224 30005KT 9999 SCT030 
     BECMG 2206/2208 14005KT 
     TEMPO 2208/2211 6000 -SHRA FEW018CB SCT030 
     BECMG 2212/2214 26005KT
       
VTUK 220000Z 35004KT 320V020 8000 SCT030 BKN050 BKN100 26/26 Q1008 NOSIG
TAF VTUK 212300Z 2200/2224 08003KT 7000 SCT020 SCT040 
     BECMG 2202/2204 04005KT 9999 SCT020 BKN040 
     TEMPO 2208/2215 VRB15KT 5000 TSRA FEW018CB BKN020 BKN080
       
VTSG 220000Z VRB01KT 9000 -RA FEW018 SCT020 24/23 Q1009
TAF VTSG 212300Z 2200/2224 26008KT 9000 SCT020 BKN100 
     TEMPO 2204/2210 26010G25KT 3000 TSRA FEW015CB SCT020 BKN100 
     TEMPO 2220/2224 26010G25KT 3000 TSRA FEW015CB SCT020 BKN100
       
VTCL 220000Z 08003KT 5000 BR FEW010 BKN025 OVC100 24/23 Q1009
TAF VTCL 212300Z 2200/2224 22005KT 9999 SCT035 
     TEMPO 2208/2212 VRB10G25KT 4000 TSRA FEW025CB BKN030
       
VTUL 220000Z VRB02KT 5000 BR FEW012 FEW030 24/24 Q1009
TAF VTUL 212300Z 2200/2224 02002KT 5000 BR SCT020 BKN040 
     BECMG 2202/2204 34005KT 9999 NSW BKN020 
     TEMPO 2208/2215 VRB15KT 5000 TSRA FEW018CB BKN020 BKN080
       
VTCH 220000Z VRB02KT 9999 FEW018 BKN025 25/21 Q1009
TAF VTCH 212300Z 2200/2224 22005KT 9999 SCT035 
     TEMPO 2208/2212 VRB10G25KT 4000 TSRA FEW025CB BKN030
       
TAF VTPM 212300Z 2200/2224 22005KT 9999 SCT035 
     TEMPO 2208/2212 VRB10G25KT 4000 TSRA FEW025CB BKN030
       
TAF VTUW 212300Z 2200/2224 06005KT 9999 FEW020 SCT060 
     TEMPO 2208/2215 VRB15KT 5000 TSRA FEW018CB BKN020 BKN080
       
VTUQ 220000Z AUTO 00000KT ////NDV ////// 25/25 Q1009 A2979
TAF VTUQ 212300Z 2200/2224 22005KT 9000 SCT025 SCT100 
     TEMPO 2200/2202 VRB10KT 5000 TSRA FEW018CB BKN020 OVC100 
     TEMPO 2209/2213 VRB10KT 5000 TSRA FEW018CB BKN020 OVC100
       
VTSF 220000Z 00000KT 9999 FEW018 FEW022 25/24 Q1008
TAF VTSF 212300Z 2200/2224 VRB02KT 9999 FEW020 
     TEMPO 2206/2212 VRB15KT 6000 -TSRA FEW016CB SCT018 BKN100
       
VTCN 220000Z 01004KT 9999 FEW003 FEW018TCU SCT100 24/24 Q1009
TAF VTCN 212300Z 2200/2224 22005KT 9999 BKN035 
     TEMPO 2208/2212 VRB10G25KT 4000 TSRA FEW025CB BKN030
       
VTSC 220000Z VRB02KT 9999 SCT020 BKN100 26/22 Q1009 RWY20 INFO A
TAF VTSC 212300Z 2200/2224 24008KT 9999 SCT020 SCT100 
     TEMPO 2206/2212 27010G20KT 7000 -RA SCT015 OVC100
       
TAF VTSK 212300Z 2200/2224 23008KT 9999 SCT020 BKN100 
     TEMPO 2200/2203 8000 -RA SCT015 OVC100 
     TEMPO 2206/2212 24010G20KT 7000 -RA SCT015 OVC100
       
TAF VTPB 212300Z 2200/2224 22005KT 9999 SCT035 
     TEMPO 2208/2212 VRB10G25KT 4000 TSRA FEW025CB BKN030
       
VTPP 220000Z VRB02KT 9999 SCT023 BKN100 26/24 Q1008
TAF VTPP 212300Z 2200/2224 22005KT 9999 BKN035 
     TEMPO 2208/2212 VRB10G25KT 4000 TSRA FEW025CB BKN030
       
VTCP 220000Z VRB02KT 0800 FG OVC020 25/25 Q1008
TAF VTCP 212300Z 2200/2224 22005KT 9999 BKN035 
     TEMPO 2208/2212 VRB10G25KT 4000 TSRA FEW025CB BKN030
       
VTSP 220030Z 25012KT 190V290 7000 SCT016 BKN100 28/23 Q1011 NOSIG
TAF VTSP 212300Z 2200/2306 26012KT 7000 SCT016 BKN100 
     TEMPO 2204/2208 26010G25KT 3000 TSRA FEW015CB SCT020 BKN100 
     TEMPO 2212/2216 26010G25KT 3000 TSRA FEW015CB SCT020 BKN100 
     TEMPO 2222/2302 26010G25KT 3000 TSRA FEW015CB SCT020 BKN100
       
VTSR 220000Z 15004KT 100V200 1000 +RA OVC021 24/23 Q1010
TAF VTSR 211700Z 2118/2218 28006KT 7000 BKN018 BKN025 
     TEMPO 2120/2124 26010G25KT 3000 TSRA FEW015CB SCT020 BKN100 
     TEMPO 2204/2208 26010G25KT 3000 TSRA FEW015CB SCT020 BKN100 
     TEMPO 2212/2218 26010G25KT 3000 TSRA FEW015CB SCT020 BKN100
       
VTUV 220000Z 08004KT 6000 NSC 27/24 Q1008 INFO A RWY 36
TAF VTUV 212300Z 2200/2224 14005KT 9000 SCT025 
     TEMPO 2209/2213 VRB10KT 5000 TSRA FEW018CB BKN020 OVC100
       
VTUI 220000Z 00000KT 9999 FEW030 26/25 Q1009
TAF VTUI 212300Z 2200/2224 08005KT 9999 FEW020 SCT060 
     TEMPO 2208/2215 VRB15KT 5000 TSRA FEW018CB BKN020 BKN080
       
VTSM 220030Z 26007KT 9999 FEW020 27/23 Q1009
TAF VTSM 212300Z 2200/2224 30008KT 9999 FEW020 SCT100 
     TEMPO 2207/2213 30010G20KT 7000 -RA SCT015 OVC100
       
VTSH 220000Z 00000KT 9999 FEW020 SCT040 BKN100 25/24 Q1008 NOSIG
TAF VTSH 212300Z 2200/2224 24006KT 9999 SCT020 BKN100 
     TEMPO 2200/2203 8000 -RA SCT015 OVC100 
     TEMPO 2206/2212 24010G20KT 7000 -RA SCT015 OVC100
       
VTPO 220000Z 00000KT 9999 SCT005 SCT020 BKN022 26/25 Q1008
TAF VTPO 212300Z 2200/2224 22005KT 9999 BKN035 
     TEMPO 2208/2212 VRB10G25KT 4000 TSRA FEW025CB BKN030
       
VTSB 220000Z 00000KT 5000 -RA BR SCT018 24/24 Q1009
TAF VTSB 212300Z 2200/2224 18003KT 5000 BR FEW020 SCT100 
     BECMG 2201/2203 24010KT 9999 NSW 
     TEMPO 2207/2212 VRB15KT 7000 -TSRA FEW016CB SCT018 BKN100
       
TAF VTPT 212300Z 2200/2224 22005KT 9999 SCT035 
     TEMPO 2208/2212 VRB10G25KT 4000 TSRA FEW025CB BKN030
       
VTST 220000Z 13004KT 9000 FEW020 23/23 Q1008
TAF VTST 212300Z 2200/2224 26008KT 7000 SCT017 BKN022 OVC100 
     TEMPO 2202/2208 26010G25KT 3000 TSRA FEW015CB SCT020 BKN100 
     BECMG 2206/2208 16004KT 
     TEMPO 2208/2212 26010G25KT 3000 TSRA FEW015CB SCT020 BKN100
       
VTBU 220030Z 00000KT 8000 FEW018CB SCT035 BKN100 25/23 Q1007 NOSIG
TAF VTBU 212300Z 2200/2224 23004KT 7000 FEW020 SCT100 
     TEMPO 2200/2205 VRB10KT 5000 -TSRA FEW018CB SCT035 BKN100 
     BECMG 2205/2207 19008KT 8000
       
VTUU 220000Z 14003KT 9999 FEW015 SCT020 25/25 Q1008 NOSIG
TAF VTUU 212300Z 2200/2224 16005KT 9000 SCT025 SCT100 
     TEMPO 2209/2213 VRB10KT 5000 TSRA FEW018CB BKN020 OVC100
       
VTUD 220000Z 33004KT 9999 FEW042 25/25 Q1009
TAF VTUD 212300Z 2200/2224 06003KT 7000 SCT020 SCT040 
     BECMG 2202/2204 02005KT 9999 SCT020 SCT040 
     TEMPO 2208/2215 VRB15KT 5000 TSRA FEW018CB BKN020 BKN080